Time;durP1;ratioP1;P1;durP2;ratioP2;P2;SDS_P1;SDS_P2;PMS_P1;PMS_P2;Temp;Humidity;BMP_temperature;BMP_pressure;BME280_temperature;BME280_humidity;BME280_pressure;Samples;Min_cycle;Max_cycle;Signal;HPM_P1;HPM_P2
2022/03/05 00:02:15;;;;;;;4.60;2.90;;;;;;;-145.14;100.00;70583.66;4999254;28;20349;-76
2022/03/05 00:04:40;;;;;;;4.20;3.20;;;;;;;-145.14;100.00;70583.66;4996543;28;20294;-76
2022/03/05 00:07:07;;;;;;;4.43;3.60;;;;;;;-145.14;100.00;70583.66;5001149;28;20193;-75
2022/03/05 00:09:32;;;;;;;5.40;3.90;;;;;;;-145.14;100.00;70583.66;4991137;28;20188;-76
2022/03/05 00:12:01;;;;;;;3.93;3.53;;;;;;;-145.14;100.00;70583.66;4995795;28;20490;-76
2022/03/05 00:14:26;;;;;;;3.50;3.03;;;;;;;-145.14;100.00;70583.66;4994155;28;20195;-76
2022/03/05 00:16:52;;;;;;;4.27;3.30;;;;;;;-145.14;100.00;70583.66;4993603;28;20440;-76
2022/03/05 00:19:18;;;;;;;6.10;3.77;;;;;;;-145.14;100.00;70583.66;4994821;28;20232;-75
2022/03/05 00:21:43;;;;;;;4.50;3.87;;;;;;;-145.14;100.00;70583.66;4998857;28;20177;-76
2022/03/05 00:24:09;;;;;;;4.83;4.00;;;;;;;-145.14;100.00;70583.66;4996587;28;20185;-76
2022/03/05 00:26:35;;;;;;;5.27;3.43;;;;;;;-145.14;100.00;70583.66;4993081;28;20251;-77
2022/03/05 00:29:00;;;;;;;5.17;3.20;;;;;;;-145.14;100.00;70583.66;4996496;28;20184;-76
2022/03/05 00:31:26;;;;;;;4.50;3.53;;;;;;;-145.14;100.00;70583.66;5000606;28;20185;-75
2022/03/05 00:33:52;;;;;;;6.37;3.50;;;;;;;-145.14;100.00;70583.66;4996665;28;20266;-76
2022/03/05 00:36:17;;;;;;;4.97;3.67;;;;;;;-145.14;100.00;70583.66;4999488;28;20181;-75
2022/03/05 00:38:43;;;;;;;4.17;3.30;;;;;;;-145.14;100.00;70583.66;4996576;28;20626;-76
2022/03/05 00:41:08;;;;;;;5.93;3.80;;;;;;;-145.14;100.00;70583.66;4996943;28;20268;-74
2022/03/05 00:43:35;;;;;;;6.33;3.90;;;;;;;-145.14;100.00;70583.66;4994296;28;20683;-75
2022/03/05 00:46:00;;;;;;;4.33;3.30;;;;;;;-145.14;100.00;70583.66;4993666;28;20440;-75
2022/03/05 00:48:26;;;;;;;4.27;3.20;;;;;;;-145.14;100.00;70583.66;4994810;28;20440;-75
2022/03/05 00:50:51;;;;;;;5.70;3.40;;;;;;;-145.14;100.00;70583.66;4997485;28;20277;-76
2022/03/05 00:53:18;;;;;;;6.50;3.20;;;;;;;-145.14;100.00;70583.66;4993400;28;20753;-75
2022/03/05 00:55:44;;;;;;;4.30;3.27;;;;;;;-145.14;100.00;70583.66;4993216;28;20177;-76
2022/03/05 00:58:10;;;;;;;4.70;3.57;;;;;;;-145.14;100.00;70583.66;4995177;28;20456;-75
2022/03/05 01:00:35;;;;;;;3.70;3.20;;;;;;;-145.14;100.00;70583.66;4991094;28;20452;-75
2022/03/05 01:03:02;;;;;;;3.83;3.23;;;;;;;-145.14;100.00;70583.66;4993735;28;20725;-75
2022/03/05 01:05:27;;;;;;;4.90;3.30;;;;;;;-145.14;100.00;70583.66;4995399;28;20269;-75
2022/03/05 01:07:53;;;;;;;3.93;3.57;;;;;;;-145.14;100.00;70583.66;4995576;28;20459;-76
2022/03/05 01:10:18;;;;;;;4.63;3.43;;;;;;;-145.14;100.00;70583.66;4994468;28;20235;-77
2022/03/05 01:12:44;;;;;;;3.40;3.00;;;;;;;-145.14;100.00;70583.66;4995023;28;20239;-75
2022/03/05 01:15:09;;;;;;;3.50;3.00;;;;;;;-145.14;100.00;70583.66;4995817;28;20199;-75
2022/03/05 01:17:35;;;;;;;4.50;3.50;;;;;;;-145.14;100.00;70583.66;4993847;28;20186;-74
2022/03/05 01:20:01;;;;;;;6.40;3.40;;;;;;;-145.14;100.00;70583.66;4993427;28;20282;-78
2022/03/05 01:22:26;;;;;;;3.53;3.13;;;;;;;-145.14;100.00;70583.66;4996961;28;20836;-76
2022/03/05 01:24:52;;;;;;;3.70;3.10;;;;;;;-145.14;100.00;70583.66;4990939;28;20277;-75
2022/03/05 01:27:21;;;;;;;6.90;3.67;;;;;;;-145.14;100.00;70583.66;4995717;28;20200;-76
2022/03/05 01:29:46;;;;;;;4.10;3.70;;;;;;;-145.14;100.00;70583.66;4991625;28;20443;-76
2022/03/05 01:32:12;;;;;;;3.10;2.80;;;;;;;-145.14;100.00;70583.66;4992985;28;20475;-75
2022/03/05 01:34:37;;;;;;;3.73;3.30;;;;;;;-145.14;100.00;70583.66;4994632;28;20674;-76
2022/03/05 01:37:03;;;;;;;5.40;4.10;;;;;;;-145.14;100.00;70583.66;4995286;28;20203;-75
2022/03/05 01:39:28;;;;;;;3.50;3.20;;;;;;;-145.14;100.00;70583.66;4994997;28;20213;-76
2022/03/05 01:41:55;;;;;;;4.93;3.40;;;;;;;-145.14;100.00;70583.66;4989362;28;20255;-76
2022/03/05 01:44:22;;;;;;;4.47;3.60;;;;;;;-145.14;100.00;70583.66;4996381;28;20189;-75
2022/03/05 01:46:47;;;;;;;3.83;3.40;;;;;;;-145.14;100.00;70583.66;4992519;28;20447;-77
2022/03/05 01:49:13;;;;;;;4.30;3.90;;;;;;;-145.14;100.00;70583.66;4994370;28;20509;-78
2022/03/05 01:51:40;;;;;;;5.30;4.10;;;;;;;-145.14;100.00;70583.66;4994082;28;20219;-76
2022/03/05 01:54:07;;;;;;;5.37;3.60;;;;;;;-145.14;100.00;70583.66;4998554;28;20447;-77
2022/03/05 01:56:33;;;;;;;4.03;3.33;;;;;;;-145.14;100.00;70583.66;4996795;28;20447;-77
2022/03/05 01:59:00;;;;;;;5.40;3.73;;;;;;;-145.14;100.00;70583.66;4992877;28;21138;-78
2022/03/05 02:01:28;;;;;;;4.60;3.17;;;;;;;-145.14;100.00;70583.66;4991029;28;20458;-78
2022/03/05 02:03:54;;;;;;;5.00;3.07;;;;;;;-145.14;100.00;70583.66;4992377;28;20464;-76
2022/03/05 02:06:21;;;;;;;5.60;3.53;;;;;;;-145.14;100.00;70583.66;4993787;28;20451;-78
2022/03/05 02:08:47;;;;;;;4.00;3.60;;;;;;;-145.14;100.00;70583.66;4995093;28;20941;-79
2022/03/05 02:11:12;;;;;;;4.83;3.40;;;;;;;-145.14;100.00;70583.66;4996695;28;20443;-79
2022/03/05 02:13:38;;;;;;;3.97;3.03;;;;;;;-145.14;100.00;70583.66;4999157;28;20544;-78
2022/03/05 02:16:04;;;;;;;6.50;3.43;;;;;;;-145.14;100.00;70583.66;4998910;28;20607;-79
2022/03/05 02:18:29;;;;;;;4.73;3.90;;;;;;;-145.14;100.00;70583.66;4997697;28;20201;-80
2022/03/05 02:20:55;;;;;;;4.43;3.67;;;;;;;-145.14;100.00;70583.66;4997077;28;20283;-80
2022/03/05 02:23:21;;;;;;;6.90;3.47;;;;;;;-145.14;100.00;70583.66;4997511;28;20220;-81
2022/03/05 02:25:58;;;;;;;5.63;3.53;;;;;;;-145.14;100.00;70583.66;4998286;28;20459;-80
2022/03/05 02:28:25;;;;;;;3.80;3.27;;;;;;;-145.14;100.00;70583.66;4997890;28;20188;-82
2022/03/05 02:30:52;;;;;;;4.70;4.03;;;;;;;-145.14;100.00;70583.66;4999365;28;20452;-82
2022/03/05 02:33:18;;;;;;;4.03;3.20;;;;;;;-145.14;100.00;70583.66;4996763;28;20956;-82
2022/03/05 02:35:44;;;;;;;3.87;3.47;;;;;;;-145.14;100.00;70583.66;4999206;28;20443;-82
2022/03/05 02:38:12;;;;;;;4.20;3.60;;;;;;;-145.14;100.00;70583.66;4996543;28;20229;-82
2022/03/05 02:40:38;;;;;;;6.10;4.03;;;;;;;-145.14;100.00;70583.66;4999798;28;20455;-82
2022/03/05 02:43:04;;;;;;;4.77;3.83;;;;;;;-145.14;100.00;70583.66;4998498;28;20992;-83
2022/03/05 02:45:29;;;;;;;8.87;4.13;;;;;;;-145.14;100.00;70583.66;4994710;28;20452;-83
2022/03/05 02:47:55;;;;;;;6.07;3.60;;;;;;;-145.14;100.00;70583.66;4999148;28;20185;-83
2022/03/05 02:50:20;;;;;;;4.00;3.00;;;;;;;-145.14;100.00;70583.66;4995134;28;20218;-83
2022/03/05 02:52:46;;;;;;;4.00;3.40;;;;;;;-145.14;100.00;70583.66;4996196;28;20233;-83
2022/03/05 02:55:11;;;;;;;3.90;3.50;;;;;;;-145.14;100.00;70583.66;4997617;28;20605;-84
2022/03/05 02:57:37;;;;;;;7.93;3.43;;;;;;;-145.14;100.00;70583.66;4997515;28;20197;-84
2022/03/05 03:00:04;;;;;;;4.60;3.73;;;;;;;-145.14;100.00;70583.66;4993428;28;20227;-84
2022/03/05 03:02:29;;;;;;;3.90;3.60;;;;;;;-145.14;100.00;70583.66;4997406;28;20209;-85
2022/03/05 03:04:55;;;;;;;4.67;3.90;;;;;;;-145.14;100.00;70583.66;4994501;28;20888;-85
2022/03/05 03:07:21;;;;;;;6.17;4.20;;;;;;;-145.14;100.00;70583.66;5001690;28;20192;-85
2022/03/05 03:09:46;;;;;;;5.87;4.23;;;;;;;-145.14;100.00;70583.66;5001090;28;20192;-86
2022/03/05 03:12:12;;;;;;;3.70;3.40;;;;;;;-145.14;100.00;70583.66;4997972;28;20209;-85
2022/03/05 03:14:37;;;;;;;4.03;3.63;;;;;;;-145.14;100.00;70583.66;4994546;28;20236;-85
2022/03/05 03:17:03;;;;;;;6.20;3.67;;;;;;;-145.14;100.00;70583.66;4996542;28;20275;-84
2022/03/05 03:19:28;;;;;;;5.67;3.93;;;;;;;-145.14;100.00;70583.66;4992733;28;20252;-85
2022/03/05 03:21:54;;;;;;;5.50;3.63;;;;;;;-145.14;100.00;70583.66;4998379;28;20192;-85
2022/03/05 03:24:19;;;;;;;7.33;4.30;;;;;;;-145.14;100.00;70583.66;4999064;28;20201;-86
2022/03/05 03:26:45;;;;;;;4.23;3.83;;;;;;;-145.14;100.00;70583.66;4998640;28;20668;-87
2022/03/05 03:29:11;;;;;;;5.80;3.57;;;;;;;-145.14;100.00;70583.66;4999566;28;20189;-87
2022/03/05 03:31:37;;;;;;;5.30;3.90;;;;;;;-145.14;100.00;70583.66;5001787;28;20458;-88
2022/03/05 03:34:03;;;;;;;5.33;4.13;;;;;;;-145.14;100.00;70583.66;5000213;28;20452;-87
2022/03/05 03:36:29;;;;;;;4.70;3.67;;;;;;;-145.14;100.00;70583.66;4998950;28;20189;-86
2022/03/05 03:38:54;;;;;;;4.50;3.20;;;;;;;-145.14;100.00;70583.66;4998334;28;20551;-86
2022/03/05 03:41:20;;;;;;;4.93;3.97;;;;;;;-145.14;100.00;70583.66;5003100;28;20192;-86
2022/03/05 03:43:45;;;;;;;5.13;3.70;;;;;;;-145.14;100.00;70583.66;5002391;28;20255;-87
2022/03/05 03:46:10;;;;;;;3.40;3.10;;;;;;;-145.14;100.00;70583.66;4998578;28;20231;-86
2022/03/05 03:48:37;;;;;;;5.30;3.40;;;;;;;-145.14;100.00;70583.66;5003083;28;20750;-87
2022/03/05 03:51:03;;;;;;;5.50;3.83;;;;;;;-145.14;100.00;70583.66;4994463;28;20204;-86
2022/03/05 03:53:28;;;;;;;5.33;3.60;;;;;;;-145.14;100.00;70583.66;5002455;28;20547;-85
2022/03/05 03:55:54;;;;;;;4.90;3.87;;;;;;;-145.14;100.00;70583.66;5001792;28;20186;-86
2022/03/05 03:58:19;;;;;;;5.47;3.23;;;;;;;-145.14;100.00;70583.66;5004052;28;20205;-85
2022/03/05 04:00:45;;;;;;;3.83;3.43;;;;;;;-145.14;100.00;70583.66;4998943;28;20247;-86
2022/03/05 04:03:10;;;;;;;5.43;4.00;;;;;;;-145.14;100.00;70583.66;4994715;28;20217;-82
2022/03/05 04:05:36;;;;;;;4.07;3.70;;;;;;;-145.14;100.00;70583.66;5000867;28;20185;-81
2022/03/05 04:10:46;;;;;;;5.50;4.30;;;;;;;-145.14;100.00;70583.66;5000622;28;20708;-88
2022/03/05 04:13:11;;;;;;;6.30;4.00;;;;;;;-145.14;100.00;70583.66;5001614;28;20538;-85
2022/03/05 04:15:37;;;;;;;4.20;3.47;;;;;;;-145.14;100.00;70583.66;4998146;28;20547;-86
2022/03/05 04:18:02;;;;;;;4.10;3.70;;;;;;;-145.14;100.00;70583.66;4999211;28;20208;-86
2022/03/05 04:20:28;;;;;;;5.30;4.10;;;;;;;-145.14;100.00;70583.66;5001452;28;20614;-86
2022/03/05 04:22:53;;;;;;;3.80;3.50;;;;;;;-145.14;100.00;70583.66;4999074;28;20223;-86
2022/03/05 04:25:19;;;;;;;6.87;4.40;;;;;;;-145.14;100.00;70583.66;5000074;28;20189;-85
2022/03/05 04:27:44;;;;;;;4.53;3.50;;;;;;;-145.14;100.00;70583.66;5000862;28;20193;-86
2022/03/05 04:30:11;;;;;;;8.13;4.27;;;;;;;-145.14;100.00;70583.66;5003134;28;20195;-86
2022/03/05 04:32:38;;;;;;;5.63;3.70;;;;;;;-145.14;100.00;70583.66;4998958;28;20247;-85
2022/03/05 04:35:05;;;;;;;9.30;3.87;;;;;;;-145.14;100.00;70583.66;4999274;28;20451;-85
2022/03/05 04:37:31;;;;;;;6.70;3.90;;;;;;;-145.14;100.00;70583.66;5002814;28;20447;-86
2022/03/05 04:39:56;;;;;;;5.70;3.90;;;;;;;-145.14;100.00;70583.66;4998053;28;20524;-85
2022/03/05 04:42:22;;;;;;;3.50;3.20;;;;;;;-145.14;100.00;70583.66;5001425;28;20467;-86
2022/03/05 04:44:47;;;;;;;6.57;4.03;;;;;;;-145.14;100.00;70583.66;4998530;28;20200;-86
2022/03/05 04:47:13;;;;;;;5.50;3.60;;;;;;;-145.14;100.00;70583.66;5000568;28;20269;-85
2022/03/05 04:49:38;;;;;;;4.37;3.40;;;;;;;-145.14;100.00;70583.66;4999955;28;20279;-85
2022/03/05 04:52:04;;;;;;;3.97;3.13;;;;;;;-145.14;100.00;70583.66;4999787;28;20212;-85
2022/03/05 04:54:30;;;;;;;4.40;3.33;;;;;;;-145.14;100.00;70583.66;4998624;28;20216;-86
2022/03/05 04:56:57;;;;;;;5.27;3.60;;;;;;;-145.14;100.00;70583.66;4995169;28;20412;-86
2022/03/05 04:59:22;;;;;;;6.00;4.13;;;;;;;-145.14;100.00;70583.66;4999704;28;20208;-86
2022/03/05 05:01:48;;;;;;;5.53;4.30;;;;;;;-145.14;100.00;70583.66;4999218;28;20447;-86
2022/03/05 05:04:14;;;;;;;6.30;3.73;;;;;;;-145.14;100.00;70583.66;4999618;28;20824;-86
2022/03/05 05:06:39;;;;;;;3.90;3.50;;;;;;;-145.14;100.00;70583.66;4999627;28;20255;-85
2022/03/05 05:09:04;;;;;;;4.50;3.50;;;;;;;-145.14;100.00;70583.66;4996583;28;20217;-86
2022/03/05 05:11:30;;;;;;;5.00;4.40;;;;;;;-145.14;100.00;70583.66;5000375;28;20315;-86
2022/03/05 05:13:56;;;;;;;6.67;3.70;;;;;;;-145.14;100.00;70583.66;4996741;28;21393;-83
2022/03/05 05:16:21;;;;;;;4.70;3.60;;;;;;;-145.14;100.00;70583.66;5000795;28;20560;-86
2022/03/05 05:21:31;;;;;;;4.03;3.50;;;;;;;-145.14;100.00;70583.66;5000890;28;20246;-85
2022/03/05 05:23:57;;;;;;;6.47;4.20;;;;;;;-145.14;100.00;70583.66;4998640;28;20468;-85
2022/03/05 05:26:22;;;;;;;6.43;4.10;;;;;;;-145.14;100.00;70583.66;4995977;28;20518;-84
2022/03/05 05:28:49;;;;;;;6.17;3.73;;;;;;;-145.14;100.00;70583.66;4999573;28;20192;-83
2022/03/05 05:31:14;;;;;;;6.23;3.47;;;;;;;-145.14;100.00;70583.66;4997944;28;20196;-82
2022/03/05 05:33:43;;;;;;;5.33;4.10;;;;;;;-145.14;100.00;70583.66;4999616;28;20460;-85
2022/03/05 05:36:13;;;;;;;4.70;3.67;;;;;;;-145.14;100.00;70583.66;5000025;28;20227;-86
2022/03/05 05:38:39;;;;;;;5.03;3.47;;;;;;;-145.14;100.00;70583.66;4998589;28;20463;-86
2022/03/05 05:41:04;;;;;;;4.93;3.50;;;;;;;-145.14;100.00;70583.66;5001735;28;20447;-86
2022/03/05 05:43:30;;;;;;;4.10;3.50;;;;;;;-145.14;100.00;70583.66;4998540;28;20475;-85
2022/03/05 05:45:55;;;;;;;6.00;4.00;;;;;;;-145.14;100.00;70583.66;4997946;28;20192;-85
2022/03/05 05:48:21;;;;;;;4.70;3.43;;;;;;;-145.14;100.00;70583.66;4996838;28;20185;-85
2022/03/05 05:50:47;;;;;;;6.00;4.27;;;;;;;-145.14;100.00;70583.66;5000778;28;20614;-84
2022/03/05 05:53:12;;;;;;;5.03;3.70;;;;;;;-145.14;100.00;70583.66;4997267;28;20716;-87
2022/03/05 05:55:37;;;;;;;6.60;4.57;;;;;;;-145.14;100.00;70583.66;4997308;28;20292;-86
2022/03/05 05:58:03;;;;;;;4.80;3.60;;;;;;;-145.14;100.00;70583.66;5003304;28;20607;-86
2022/03/05 06:00:28;;;;;;;4.00;3.13;;;;;;;-145.14;100.00;70583.66;4997205;28;20196;-86
2022/03/05 06:02:54;;;;;;;6.33;3.73;;;;;;;-145.14;100.00;70583.66;4997816;28;20213;-84
2022/03/05 06:05:22;;;;;;;5.23;3.97;;;;;;;-145.14;100.00;70583.66;4997302;28;20193;-84
2022/03/05 06:07:48;;;;;;;6.30;3.60;;;;;;;-145.14;100.00;70583.66;5002398;28;20242;-86
2022/03/05 06:10:14;;;;;;;6.00;4.27;;;;;;;-145.14;100.00;70583.66;5002892;28;20942;-85
2022/03/05 06:12:40;;;;;;;5.40;4.03;;;;;;;-145.14;100.00;70583.66;4999842;28;20472;-88
2022/03/05 06:15:08;;;;;;;5.90;4.00;;;;;;;-145.14;100.00;70583.66;5005593;28;20181;-87
2022/03/05 06:17:34;;;;;;;8.93;3.70;;;;;;;-145.14;100.00;70583.66;5002914;28;20219;-89
2022/03/05 06:20:00;;;;;;;6.20;4.10;;;;;;;-145.14;100.00;70583.66;4998639;28;20471;-88
2022/03/05 06:22:26;;;;;;;5.63;3.80;;;;;;;-145.14;100.00;70583.66;5006051;28;20488;-88
2022/03/05 06:24:52;;;;;;;5.70;4.37;;;;;;;-145.14;100.00;70583.66;5004403;28;20609;-87
2022/03/05 06:27:17;;;;;;;8.10;3.97;;;;;;;-145.14;100.00;70583.66;5004058;28;20535;-88
2022/03/05 06:29:43;;;;;;;4.93;3.77;;;;;;;-145.14;100.00;70583.66;5012000;28;20232;-88
2022/03/05 06:32:08;;;;;;;5.60;3.90;;;;;;;-145.14;100.00;70583.66;4995535;28;20326;-81
2022/03/05 06:34:34;;;;;;;5.43;3.80;;;;;;;-145.14;100.00;70583.66;4997424;28;20821;-84
2022/03/05 06:37:03;;;;;;;7.87;3.73;;;;;;;-145.14;100.00;70583.66;4998513;28;20212;-84
2022/03/05 06:39:28;;;;;;;5.10;3.73;;;;;;;-145.14;100.00;70583.66;5000484;28;20209;-84
2022/03/05 06:41:54;;;;;;;7.40;3.93;;;;;;;-145.14;100.00;70583.66;4998446;28;20452;-85
2022/03/05 06:44:20;;;;;;;9.40;4.30;;;;;;;-145.14;100.00;70583.66;4999663;28;20275;-85
2022/03/05 06:46:45;;;;;;;8.23;4.30;;;;;;;-145.14;100.00;70583.66;4999426;28;20547;-84
2022/03/05 06:49:11;;;;;;;5.13;4.03;;;;;;;-145.14;100.00;70583.66;5000312;28;20189;-84
2022/03/05 06:51:36;;;;;;;4.60;4.00;;;;;;;-145.14;100.00;70583.66;5010537;28;20282;-84
2022/03/05 06:54:01;;;;;;;7.00;3.93;;;;;;;-145.14;100.00;70583.66;5001279;28;20201;-83
2022/03/05 06:56:27;;;;;;;4.50;3.33;;;;;;;-145.14;100.00;70583.66;5002587;28;20772;-83
2022/03/05 06:58:52;;;;;;;4.87;3.83;;;;;;;-145.14;100.00;70583.66;4999520;28;20232;-83
2022/03/05 07:01:18;;;;;;;3.93;2.93;;;;;;;-145.14;100.00;70583.66;5001623;28;21090;-84
2022/03/05 07:03:43;;;;;;;5.17;3.70;;;;;;;-145.14;100.00;70583.66;4996373;28;20212;-85
2022/03/05 07:06:08;;;;;;;5.10;3.53;;;;;;;-145.14;100.00;70583.66;4993261;28;20203;-84
2022/03/05 07:08:36;;;;;;;6.03;3.37;;;;;;;-145.14;100.00;70583.66;4994646;28;20189;-83
2022/03/05 07:11:02;;;;;;;7.50;3.73;;;;;;;-145.14;100.00;70583.66;4995738;28;20212;-86
2022/03/05 07:13:28;;;;;;;4.80;3.83;;;;;;;-145.14;100.00;70583.66;4992591;28;20591;-85
2022/03/05 07:15:53;;;;;;;6.77;3.83;;;;;;;-145.14;100.00;70583.66;4997524;28;20531;-85
2022/03/05 07:18:19;;;;;;;5.60;3.17;;;;;;;-145.14;100.00;70583.66;4994301;28;20210;-87
2022/03/05 07:20:47;;;;;;;5.53;2.83;;;;;;;-145.14;100.00;70583.66;4996069;28;20185;-87
2022/03/05 07:23:13;;;;;;;5.57;3.50;;;;;;;-145.14;100.00;70583.66;4997073;28;20212;-83
2022/03/05 07:25:41;;;;;;;5.33;3.23;;;;;;;-145.14;100.00;70583.66;4996247;28;21152;-85
2022/03/05 07:28:09;;;;;;;3.90;3.10;;;;;;;-145.14;100.00;70583.66;4995028;28;20181;-85
2022/03/05 07:30:35;;;;;;;5.40;3.60;;;;;;;-145.14;100.00;70583.66;4996757;28;20469;-86
2022/03/05 07:33:01;;;;;;;5.30;3.60;;;;;;;-145.14;100.00;70583.66;4994035;23;20505;-72
2022/03/05 07:35:26;;;;;;;4.80;3.47;;;;;;;-145.14;100.00;70583.66;4997090;28;20460;-73
2022/03/05 07:37:52;;;;;;;5.03;3.67;;;;;;;-145.14;100.00;70583.66;4990450;28;20190;-73
2022/03/05 07:40:18;;;;;;;7.23;4.27;;;;;;;-145.14;100.00;70583.66;4995471;28;20595;-72
2022/03/05 07:42:43;;;;;;;7.83;3.30;;;;;;;-145.14;100.00;70583.66;5004829;28;20217;-73
2022/03/05 07:45:09;;;;;;;4.83;3.67;;;;;;;-145.14;100.00;70583.66;5011996;28;20188;-73
2022/03/05 07:47:34;;;;;;;3.70;3.20;;;;;;;-145.14;100.00;70583.66;5012063;28;20190;-73
2022/03/05 07:50:01;;;;;;;5.90;3.53;;;;;;;-145.14;100.00;70583.66;5013488;28;20646;-73
2022/03/05 07:52:26;;;;;;;7.53;3.60;;;;;;;-145.14;100.00;70583.66;5005531;28;20224;-73
2022/03/05 07:54:52;;;;;;;4.40;3.60;;;;;;;-145.14;100.00;70583.66;5001516;28;21080;-75
2022/03/05 07:57:18;;;;;;;5.33;3.53;;;;;;;-145.14;100.00;70583.66;4998703;28;20199;-74
2022/03/05 07:59:43;;;;;;;4.43;3.40;;;;;;;-145.14;100.00;70583.66;5006413;28;20476;-75
2022/03/05 08:02:10;;;;;;;5.03;3.80;;;;;;;-145.14;100.00;70583.66;5006686;28;20208;-75
2022/03/05 08:04:35;;;;;;;7.57;4.43;;;;;;;-145.14;100.00;70583.66;5010284;28;20183;-73
2022/03/05 08:07:01;;;;;;;6.60;4.77;;;;;;;-145.14;100.00;70583.66;5009750;28;20447;-73
2022/03/05 08:09:26;;;;;;;6.53;4.70;;;;;;;-145.14;100.00;70583.66;4991992;28;20185;-73
2022/03/05 08:11:52;;;;;;;6.00;4.87;;;;;;;-145.14;100.00;70583.66;4999717;28;20201;-72
2022/03/05 08:14:17;;;;;;;6.83;4.63;;;;;;;-145.14;100.00;70583.66;5000704;28;20279;-72
2022/03/05 08:16:43;;;;;;;5.67;4.57;;;;;;;-145.14;100.00;70583.66;5004613;28;20193;-72
2022/03/05 08:19:08;;;;;;;6.00;5.13;;;;;;;-145.14;100.00;70583.66;5006549;28;20218;-73
2022/03/05 08:21:34;;;;;;;7.00;4.63;;;;;;;-145.14;100.00;70583.66;5005932;28;20272;-73
2022/03/05 08:23:59;;;;;;;7.00;4.73;;;;;;;-145.14;100.00;70583.66;5010350;28;20248;-73
2022/03/05 08:26:25;;;;;;;4.73;4.23;;;;;;;-145.14;100.00;70583.66;5008523;28;20185;-73
2022/03/05 08:28:50;;;;;;;7.43;4.70;;;;;;;-145.14;100.00;70583.66;5004904;28;20192;-73
2022/03/05 08:31:16;;;;;;;6.33;5.17;;;;;;;-145.14;100.00;70583.66;5007773;28;20239;-73
2022/03/05 08:33:42;;;;;;;6.63;4.80;;;;;;;-145.14;100.00;70583.66;5006127;28;20311;-73
2022/03/05 08:36:08;;;;;;;5.97;4.97;;;;;;;-145.14;100.00;70583.66;5000751;28;20200;-73
2022/03/05 08:38:34;;;;;;;6.53;5.10;;;;;;;-145.14;100.00;70583.66;5000950;28;20528;-74
2022/03/05 08:41:01;;;;;;;7.40;5.30;;;;;;;-145.14;100.00;70583.66;5010906;28;20191;-74
2022/03/05 08:43:27;;;;;;;9.97;5.80;;;;;;;-145.14;100.00;70583.66;5007262;28;20608;-73
2022/03/05 08:45:53;;;;;;;10.80;5.33;;;;;;;-145.14;100.00;70583.66;5008403;28;20450;-74
2022/03/05 08:48:19;;;;;;;6.73;4.63;;;;;;;-145.14;100.00;70583.66;5008220;28;20455;-74
2022/03/05 08:50:45;;;;;;;5.80;5.20;;;;;;;-145.14;100.00;70583.66;5001141;28;20459;-73
2022/03/05 08:53:10;;;;;;;5.97;4.80;;;;;;;-145.14;100.00;70583.66;5003689;28;20480;-72
2022/03/05 08:55:36;;;;;;;5.37;4.80;;;;;;;-145.14;100.00;70583.66;4992997;28;20192;-74
2022/03/05 08:58:01;;;;;;;6.50;5.10;;;;;;;-145.14;100.00;70583.66;5005808;28;20195;-74
2022/03/05 09:00:27;;;;;;;5.83;5.23;;;;;;;-145.14;100.00;70583.66;4998006;28;20180;-73
2022/03/05 09:02:53;;;;;;;6.70;5.80;;;;;;;-145.14;100.00;70583.66;5004841;28;20204;-73
2022/03/05 09:05:18;;;;;;;7.17;5.40;;;;;;;-145.14;100.00;70583.66;4999363;28;20448;-75
2022/03/05 09:07:44;;;;;;;10.30;5.90;;;;;;;-145.14;100.00;70583.66;5006791;28;20232;-75
2022/03/05 09:10:11;;;;;;;7.30;5.33;;;;;;;-145.14;100.00;70583.66;5006390;28;20184;-75
2022/03/05 09:12:37;;;;;;;6.40;5.60;;;;;;;-145.14;100.00;70583.66;5004512;28;20520;-76
2022/03/05 09:15:04;;;;;;;7.23;6.33;;;;;;;-145.14;100.00;70583.66;5003980;28;20491;-76
2022/03/05 09:17:30;;;;;;;7.30;6.33;;;;;;;-145.14;100.00;70583.66;5011660;28;20695;-77
2022/03/05 09:19:55;;;;;;;9.60;6.93;;;;;;;-145.14;100.00;70583.66;5008370;28;20471;-74
2022/03/05 09:22:21;;;;;;;7.70;6.70;;;;;;;-145.14;100.00;70583.66;5001002;28;20493;-76
2022/03/05 09:24:46;;;;;;;8.07;5.97;;;;;;;-145.14;100.00;70583.66;5005737;28;20176;-75
2022/03/05 09:27:12;;;;;;;7.97;7.17;;;;;;;-145.14;100.00;70583.66;5003737;28;20193;-75
2022/03/05 09:29:38;;;;;;;7.97;6.77;;;;;;;-145.14;100.00;70583.66;5007659;28;20670;-75
2022/03/05 09:32:04;;;;;;;10.90;7.80;;;;;;;-145.14;100.00;70583.66;5007363;28;20263;-75
2022/03/05 09:34:29;;;;;;;7.93;7.13;;;;;;;-145.14;100.00;70583.66;5008605;28;20189;-74
2022/03/05 09:36:55;;;;;;;7.97;7.13;;;;;;;-145.14;100.00;70583.66;5004082;28;20436;-75
2022/03/05 09:39:21;;;;;;;9.30;7.10;;;;;;;-145.14;100.00;70583.66;5007695;28;20223;-75
2022/03/05 09:41:46;;;;;;;7.50;6.80;;;;;;;-145.14;100.00;70583.66;5004810;28;20212;-75
2022/03/05 09:44:12;;;;;;;8.60;7.67;;;;;;;-145.14;100.00;70583.66;5007754;28;21306;-75
2022/03/05 09:46:38;;;;;;;11.80;6.80;;;;;;;-145.14;100.00;70583.66;5007986;28;20196;-75
2022/03/05 09:49:04;;;;;;;9.50;7.37;;;;;;;-145.14;100.00;70583.66;5007837;28;20444;-74
2022/03/05 09:51:31;;;;;;;9.63;7.50;;;;;;;-145.14;100.00;70583.66;5003868;28;20446;-75
2022/03/05 09:53:57;;;;;;;8.53;7.60;;;;;;;-145.14;100.00;70583.66;4998834;28;21059;-74
2022/03/05 09:56:22;;;;;;;12.57;7.40;;;;;;;-145.14;100.00;70583.66;4997919;28;20497;-73
2022/03/05 09:58:50;;;;;;;8.83;6.90;;;;;;;-145.14;100.00;70583.66;5006421;28;20470;-73
2022/03/05 10:01:16;;;;;;;7.47;6.43;;;;;;;-145.14;100.00;70583.66;5006180;28;20193;-74
2022/03/05 10:03:53;;;;;;;8.00;6.40;;;;;;;-145.14;100.00;70583.66;5007147;28;20554;-74
2022/03/05 10:06:22;;;;;;;7.40;6.23;;;;;;;-145.14;100.00;70583.66;5003656;28;20440;-74
2022/03/05 10:08:51;;;;;;;7.13;6.43;;;;;;;-145.14;100.00;70583.66;5004116;28;20987;-74
2022/03/05 10:11:18;;;;;;;7.73;6.70;;;;;;;-145.14;100.00;70583.66;5000765;28;20419;-74
2022/03/05 10:13:43;;;;;;;10.37;6.30;;;;;;;-145.14;100.00;70583.66;5012644;28;20459;-74
2022/03/05 10:16:31;;;;;;;6.43;5.83;;;;;;;-145.14;100.00;70583.66;5008949;28;21023;-73
2022/03/05 10:18:58;;;;;;;6.80;6.10;;;;;;;-145.14;100.00;70583.66;5008725;28;20216;-73
2022/03/05 10:21:31;;;;;;;7.23;6.17;;;;;;;-145.14;100.00;70583.66;5004429;28;20500;-73
2022/03/05 10:24:05;;;;;;;8.47;7.30;;;;;;;-145.14;100.00;70583.66;5005778;28;20459;-73
2022/03/05 10:26:52;;;;;;;12.17;7.30;;;;;;;-145.14;100.00;70583.66;5007927;28;20447;-73
2022/03/05 10:29:47;;;;;;;9.07;6.53;;;;;;;-145.14;100.00;70583.66;5005651;28;20432;-74
2022/03/05 10:32:15;;;;;;;10.33;6.30;;;;;;;-145.14;100.00;70583.66;5001279;28;20551;-73
2022/03/05 10:34:48;;;;;;;8.00;7.20;;;;;;;-145.14;100.00;70583.66;5013766;28;20444;-73
2022/03/05 10:37:14;;;;;;;8.30;7.10;;;;;;;-145.14;100.00;70583.66;5005307;28;20527;-73
2022/03/05 10:39:39;;;;;;;7.70;6.60;;;;;;;-145.14;100.00;70583.66;5016072;28;20835;-73
2022/03/05 10:42:18;;;;;;;8.80;6.10;;;;;;;-145.14;100.00;70583.66;5011731;28;20232;-73
2022/03/05 10:45:04;;;;;;;8.50;6.57;;;;;;;-145.14;100.00;70583.66;5020332;28;20601;-73
2022/03/05 10:47:41;;;;;;;8.70;6.97;;;;;;;-145.14;100.00;70583.66;5016525;28;20429;-72
2022/03/05 10:50:20;;;;;;;7.73;6.50;;;;;;;-145.14;100.00;70583.66;5013347;28;20427;-72
2022/03/05 10:52:48;;;;;;;9.03;6.73;;;;;;;-145.14;100.00;70583.66;5015423;28;20462;-72
2022/03/05 10:55:23;;;;;;;6.80;5.90;;;;;;;-145.14;100.00;70583.66;5016971;28;20507;-72
2022/03/05 10:58:01;;;;;;;9.00;7.60;;;;;;;-145.14;100.00;70583.66;5018347;28;20449;-72
2022/03/05 11:00:31;;;;;;;8.20;6.53;;;;;;;-145.14;100.00;70583.66;5010638;28;20466;-73
2022/03/05 11:03:03;;;;;;;8.37;6.50;;;;;;;-145.14;100.00;70583.66;5012664;28;20452;-72
2022/03/05 11:05:29;;;;;;;7.73;6.93;;;;;;;-145.14;100.00;70583.66;5016328;28;20977;-72
2022/03/05 11:07:56;;;;;;;7.90;6.90;;;;;;;-145.14;100.00;70583.66;5013479;28;20444;-72
2022/03/05 11:10:25;;;;;;;6.90;6.20;;;;;;;-145.14;100.00;70583.66;5016218;28;20500;-72
2022/03/05 11:12:52;;;;;;;8.60;6.97;;;;;;;-145.14;100.00;70583.66;5018699;28;20533;-72